createdAt,value
2022-12-01T00:01:35.644Z,3.80
2022-12-01T00:04:08.479Z,3.70
2022-12-01T00:06:39.586Z,3.70
2022-12-01T00:09:31.705Z,3.70
2022-12-01T00:12:07.154Z,3.70
2022-12-01T00:14:41.795Z,3.60
2022-12-01T00:17:16.034Z,3.40
2022-12-01T00:22:28.272Z,3.30
2022-12-01T00:24:58.964Z,3.30
2022-12-01T00:27:32.803Z,3.30
2022-12-01T00:30:02.324Z,3.30
2022-12-01T00:32:34.531Z,3.30
2022-12-01T00:35:03.694Z,3.30
2022-12-01T00:37:43.163Z,3.20
2022-12-01T00:40:24.103Z,3.20
2022-12-01T00:42:55.670Z,3.20
2022-12-01T00:45:26.817Z,3.30
2022-12-01T00:48:08.876Z,3.30
2022-12-01T00:50:37.466Z,3.10
2022-12-01T00:53:08.539Z,3.10
2022-12-01T00:55:37.033Z,3.10
2022-12-01T01:01:08.978Z,3.00
2022-12-01T01:03:37.480Z,3.00
2022-12-01T01:06:13.717Z,3.00
2022-12-01T01:08:43.471Z,2.90
2022-12-01T01:11:14.832Z,2.90
2022-12-01T01:13:45.883Z,2.80
2022-12-01T01:16:21.091Z,2.80
2022-12-01T01:18:49.880Z,2.70
2022-12-01T01:21:21.854Z,2.60
2022-12-01T01:23:59.002Z,2.70
2022-12-01T01:26:30.970Z,2.80
2022-12-01T01:29:08.562Z,2.80
2022-12-01T01:31:41.802Z,2.70
2022-12-01T01:34:14.057Z,2.80
2022-12-01T01:36:50.070Z,2.80
2022-12-01T01:39:18.948Z,2.80
2022-12-01T01:41:50.308Z,2.80
2022-12-01T01:44:59.393Z,2.80
2022-12-01T01:47:33.349Z,2.80
2022-12-01T01:50:14.668Z,2.80
2022-12-01T01:52:57.580Z,2.80
2022-12-01T01:55:32.416Z,2.70
2022-12-01T01:58:11.434Z,2.70
2022-12-01T02:00:43.785Z,2.80
2022-12-01T02:03:16.093Z,2.70
2022-12-01T02:05:48.823Z,2.70
2022-12-01T02:11:28.502Z,2.60
2022-12-01T02:13:58.953Z,2.60
2022-12-01T02:17:02.348Z,2.60
2022-12-01T02:20:10.672Z,2.70
2022-12-01T02:23:19.285Z,2.60
2022-12-01T02:26:09.076Z,2.70
2022-12-01T02:28:59.090Z,2.60
2022-12-01T02:31:35.482Z,2.70
2022-12-01T02:34:43.087Z,2.60
2022-12-01T02:37:36.523Z,2.60
2022-12-01T02:40:41.010Z,2.50
2022-12-01T02:43:21.444Z,2.50
2022-12-01T02:46:18.513Z,2.50
2022-12-01T02:48:53.412Z,2.50
2022-12-01T02:51:37.122Z,2.50
2022-12-01T02:54:08.668Z,2.50
2022-12-01T02:56:45.447Z,2.40
2022-12-01T02:59:15.732Z,2.40
2022-12-01T03:01:58.330Z,2.30
2022-12-01T03:04:57.305Z,2.40
2022-12-01T03:07:58.688Z,2.30
2022-12-01T03:11:00.812Z,2.40
2022-12-01T03:13:57.805Z,2.30
2022-12-01T03:16:41.444Z,2.30
2022-12-01T03:19:36.839Z,2.30
2022-12-01T03:24:57.480Z,2.30
2022-12-01T03:27:33.778Z,2.30
2022-12-01T03:30:04.810Z,2.30
2022-12-01T03:32:56.022Z,2.10
2022-12-01T03:35:48.994Z,2.10
2022-12-01T03:38:25.266Z,2.10
2022-12-01T03:41:02.195Z,2.10
2022-12-01T03:43:38.591Z,2.10
2022-12-01T03:46:27.464Z,2.00
2022-12-01T03:48:58.830Z,2.00
2022-12-01T03:51:50.727Z,2.00
2022-12-01T03:54:54.911Z,1.90
2022-12-01T03:57:49.621Z,1.90
2022-12-01T04:03:05.939Z,1.90
2022-12-01T04:11:29.507Z,1.90
2022-12-01T04:14:03.390Z,1.90
2022-12-01T04:16:32.954Z,1.90
2022-12-01T04:21:45.239Z,1.80
2022-12-01T04:24:18.254Z,1.70
2022-12-01T04:26:48.859Z,1.80
2022-12-01T04:29:18.233Z,1.90
2022-12-01T04:31:48.157Z,1.80
2022-12-01T04:34:16.010Z,1.70
2022-12-01T04:36:46.041Z,1.70
2022-12-01T04:39:13.437Z,1.80
2022-12-01T04:41:41.924Z,1.70
2022-12-01T04:44:14.495Z,1.80
2022-12-01T04:46:46.028Z,1.80
2022-12-01T04:49:15.846Z,1.80
2022-12-01T04:51:46.582Z,1.70
2022-12-01T04:54:23.623Z,1.80
2022-12-01T04:56:54.344Z,1.80
2022-12-01T04:59:25.618Z,1.70
2022-12-01T05:02:01.252Z,1.80
2022-12-01T05:04:34.091Z,1.80
2022-12-01T05:07:04.353Z,1.80
2022-12-01T05:09:35.291Z,1.90
2022-12-01T05:12:06.455Z,2.00
2022-12-01T05:14:42.444Z,1.90
2022-12-01T05:17:12.189Z,1.90
2022-12-01T05:20:00.454Z,1.70
2022-12-01T05:23:03.831Z,1.70
2022-12-01T05:25:24.377Z,1.80
2022-12-01T05:28:06.443Z,1.90
2022-12-01T05:30:40.225Z,1.90
2022-12-01T05:33:12.737Z,2.00
2022-12-01T05:38:26.179Z,2.00
2022-12-01T05:40:59.994Z,2.00
2022-12-01T05:43:32.274Z,2.00
2022-12-01T05:46:08.711Z,1.90
2022-12-01T05:48:39.720Z,1.80
2022-12-01T05:51:15.884Z,1.90
2022-12-01T05:53:44.329Z,2.00
2022-12-01T05:56:16.397Z,2.00
2022-12-01T05:58:46.293Z,2.00
2022-12-01T06:01:17.191Z,2.10
2022-12-01T06:03:45.107Z,2.10
2022-12-01T06:06:14.750Z,2.00
2022-12-01T06:08:46.735Z,1.90
2022-12-01T06:11:18.311Z,2.00
2022-12-01T06:13:48.301Z,2.00
2022-12-01T06:16:20.999Z,2.10
2022-12-01T06:18:48.746Z,2.10
2022-12-01T06:21:20.177Z,2.20
2022-12-01T06:23:51.136Z,2.10
2022-12-01T06:26:20.920Z,2.10
2022-12-01T06:28:51.339Z,2.00
2022-12-01T06:31:22.503Z,2.00
2022-12-01T06:33:53.302Z,2.00
2022-12-01T06:36:23.107Z,2.10
2022-12-01T06:38:53.409Z,2.20
2022-12-01T06:41:22.145Z,2.20
2022-12-01T06:43:51.321Z,2.20
2022-12-01T06:46:21.535Z,2.10
2022-12-01T06:48:50.008Z,2.20
2022-12-01T06:51:20.324Z,2.20
2022-12-01T06:54:00.868Z,2.30
2022-12-01T06:59:16.008Z,2.30
2022-12-01T07:01:48.880Z,2.30
2022-12-01T07:04:19.734Z,2.30
2022-12-01T07:06:50.023Z,2.30
2022-12-01T07:09:18.379Z,2.30
2022-12-01T07:11:46.892Z,2.20
2022-12-01T07:14:24.232Z,2.30
2022-12-01T07:16:56.327Z,2.40
2022-12-01T07:19:27.641Z,2.30
2022-12-01T07:21:59.656Z,2.40
2022-12-01T07:24:30.347Z,2.40
2022-12-01T07:26:59.856Z,2.40
2022-12-01T07:29:31.356Z,2.50
2022-12-01T07:32:09.037Z,2.50
2022-12-01T07:34:38.055Z,2.50
2022-12-01T07:37:14.773Z,2.50
2022-12-01T07:39:44.417Z,2.60
2022-12-01T07:42:15.578Z,2.50
2022-12-01T07:44:48.008Z,2.60
2022-12-01T07:47:17.760Z,2.60
2022-12-01T07:49:45.754Z,2.60
2022-12-01T07:52:14.422Z,2.60
2022-12-01T07:57:30.299Z,2.50
2022-12-01T08:00:06.556Z,2.50
2022-12-01T08:02:56.748Z,2.60
2022-12-01T08:05:29.509Z,2.50
2022-12-01T08:10:43.068Z,2.60
2022-12-01T08:13:14.247Z,2.70
2022-12-01T08:15:47.806Z,2.90
2022-12-01T08:18:19.148Z,2.90
2022-12-01T08:20:50.363Z,2.90
2022-12-01T08:23:18.005Z,3.10
2022-12-01T08:25:47.901Z,3.30
2022-12-01T08:28:19.854Z,3.40
2022-12-01T08:30:51.691Z,3.60
2022-12-01T08:33:22.819Z,3.70
2022-12-01T08:35:53.045Z,3.80
2022-12-01T08:38:22.081Z,4.00
2022-12-01T08:40:52.001Z,4.10
2022-12-01T08:43:41.829Z,4.30
2022-12-01T08:46:16.821Z,4.40
2022-12-01T08:48:48.560Z,4.30
2022-12-01T08:51:19.395Z,4.50
2022-12-01T08:53:49.558Z,4.40
2022-12-01T08:56:40.252Z,4.60
2022-12-01T08:59:11.112Z,4.40
2022-12-01T09:01:54.514Z,4.50
2022-12-01T09:04:26.603Z,4.20
2022-12-01T09:06:57.964Z,4.30
2022-12-01T09:09:28.977Z,4.40
2022-12-01T09:11:57.625Z,4.50
2022-12-01T09:14:25.991Z,4.60
2022-12-01T09:16:57.896Z,4.60
2022-12-01T09:19:32.013Z,4.50
2022-12-01T09:22:01.663Z,4.60
2022-12-01T09:24:32.777Z,4.60
2022-12-01T09:27:10.956Z,4.50
2022-12-01T09:29:39.229Z,4.60
2022-12-01T09:32:09.350Z,4.50
2022-12-01T09:34:40.929Z,4.60
2022-12-01T09:37:14.590Z,4.50
2022-12-01T09:39:45.051Z,4.50
2022-12-01T09:42:20.983Z,4.50
2022-12-01T09:44:56.757Z,4.60
2022-12-01T09:47:39.557Z,4.70
2022-12-01T09:50:27.899Z,4.90
2022-12-01T09:53:10.751Z,5.00
2022-12-01T09:58:26.447Z,5.30
2022-12-01T10:01:04.579Z,5.40
2022-12-01T10:03:49.787Z,5.20
2022-12-01T10:06:47.488Z,5.20
2022-12-01T10:09:54.916Z,5.50
2022-12-01T10:12:33.145Z,5.10
2022-12-01T10:15:40.367Z,4.90
2022-12-01T10:18:36.849Z,5.00
2022-12-01T10:21:33.932Z,4.80
2022-12-01T10:24:34.756Z,4.80
2022-12-01T10:27:31.541Z,4.60
2022-12-01T10:30:19.807Z,4.90
2022-12-01T10:33:01.991Z,4.80
2022-12-01T10:35:37.999Z,4.70
2022-12-01T10:38:32.924Z,4.90
2022-12-01T10:41:05.865Z,5.00
2022-12-01T10:43:46.367Z,5.10
2022-12-01T10:46:44.863Z,4.90
2022-12-01T10:49:18.261Z,5.00
2022-12-01T10:51:55.088Z,5.10
2022-12-01T10:54:34.893Z,5.20
2022-12-01T10:57:06.594Z,5.30
2022-12-01T11:00:02.012Z,5.40
2022-12-01T11:02:33.691Z,5.40
2022-12-01T11:05:33.624Z,5.30
2022-12-01T11:08:03.174Z,5.30
2022-12-01T11:10:48.778Z,5.00
2022-12-01T11:13:32.768Z,5.20
2022-12-01T11:16:06.662Z,5.30
2022-12-01T11:18:39.506Z,5.10
2022-12-01T11:21:20.473Z,5.00
2022-12-01T11:23:51.810Z,5.20
2022-12-01T11:26:26.753Z,5.50
2022-12-01T11:29:05.017Z,5.20
2022-12-01T11:31:41.789Z,5.30
2022-12-01T11:34:21.845Z,5.40
2022-12-01T11:36:54.747Z,5.30
2022-12-01T11:39:56.663Z,5.40
2022-12-01T11:42:32.245Z,5.40
2022-12-01T11:45:32.820Z,5.50
2022-12-01T11:48:26.900Z,5.60
2022-12-01T11:51:20.068Z,5.90
2022-12-01T11:54:04.596Z,6.00
2022-12-01T11:56:36.023Z,6.00
2022-12-01T11:59:16.879Z,6.20
2022-12-01T12:02:27.152Z,6.20
2022-12-01T12:05:18.892Z,6.20
2022-12-01T12:08:32.084Z,6.20
2022-12-01T12:11:20.703Z,6.20
2022-12-01T12:14:28.745Z,6.00
2022-12-01T12:17:46.437Z,5.80
2022-12-01T12:20:41.073Z,6.20
2022-12-01T12:23:40.084Z,6.20
2022-12-01T12:26:57.577Z,6.20
2022-12-01T12:30:04.202Z,6.20
2022-12-01T12:32:43.019Z,6.10
2022-12-01T12:36:05.142Z,6.10
2022-12-01T12:39:12.091Z,6.00
2022-12-01T12:41:50.636Z,6.00
2022-12-01T12:44:36.981Z,6.00
2022-12-01T12:47:29.558Z,5.90
2022-12-01T12:50:10.301Z,5.90
2022-12-01T12:52:43.387Z,5.80
2022-12-01T12:55:22.375Z,5.70
2022-12-01T12:58:04.359Z,5.70
2022-12-01T13:00:42.428Z,5.80
2022-12-01T13:03:52.071Z,5.80
2022-12-01T13:06:38.766Z,5.70
2022-12-01T13:09:32.532Z,5.70
2022-12-01T13:12:16.074Z,5.60
2022-12-01T13:15:20.439Z,5.60
2022-12-01T13:18:10.890Z,5.50
2022-12-01T13:20:43.719Z,5.60
2022-12-01T13:23:26.675Z,5.60
2022-12-01T13:26:01.402Z,5.60
2022-12-01T13:28:50.546Z,5.60
2022-12-01T13:31:29.009Z,5.40
2022-12-01T13:34:05.751Z,5.40
2022-12-01T13:36:49.705Z,5.40
2022-12-01T13:39:42.384Z,5.30
2022-12-01T13:42:29.117Z,5.30
2022-12-01T13:45:01.625Z,5.30
2022-12-01T13:47:48.923Z,5.20
2022-12-01T13:50:49.117Z,5.30
2022-12-01T13:53:32.172Z,5.20
2022-12-01T13:56:18.253Z,5.10
2022-12-01T13:58:49.595Z,5.10
2022-12-01T14:01:35.917Z,5.10
2022-12-01T14:04:29.776Z,5.10
2022-12-01T14:07:37.386Z,5.00
2022-12-01T14:10:42.216Z,5.00
2022-12-01T14:13:19.942Z,4.80
2022-12-01T14:16:05.476Z,4.90
2022-12-01T14:18:59.210Z,4.80
2022-12-01T14:21:58.057Z,4.90
2022-12-01T14:25:01.501Z,4.90
2022-12-01T14:27:42.357Z,4.80
2022-12-01T14:30:45.049Z,4.70
2022-12-01T14:33:44.284Z,4.70
2022-12-01T14:36:47.378Z,4.70
2022-12-01T14:39:38.560Z,4.70
2022-12-01T14:42:46.704Z,4.70
2022-12-01T14:45:22.052Z,4.70
2022-12-01T14:48:03.783Z,4.70
2022-12-01T14:50:54.394Z,4.60
2022-12-01T14:53:32.784Z,4.60
2022-12-01T14:56:16.682Z,4.50
2022-12-01T14:59:01.134Z,4.50
2022-12-01T15:04:18.262Z,4.50
2022-12-01T15:06:47.454Z,4.50
2022-12-01T15:09:36.982Z,4.40
2022-12-01T15:12:11.600Z,4.40
2022-12-01T15:14:50.852Z,4.30
2022-12-01T15:17:36.115Z,4.30
2022-12-01T15:20:36.309Z,4.30
2022-12-01T15:23:17.535Z,4.30
2022-12-01T15:25:48.832Z,4.30
2022-12-01T15:28:20.380Z,4.30
2022-12-01T15:30:54.882Z,4.20
2022-12-01T15:33:36.751Z,4.20
2022-12-01T15:36:07.295Z,4.20
2022-12-01T15:38:39.839Z,4.20
2022-12-01T15:41:29.697Z,4.20
2022-12-01T15:44:12.945Z,4.10
2022-12-01T15:46:45.277Z,4.20
2022-12-01T15:49:31.897Z,4.10
2022-12-01T15:52:12.749Z,4.00
2022-12-01T15:54:46.615Z,4.00
2022-12-01T15:57:21.804Z,4.00
2022-12-01T15:59:56.289Z,4.10
2022-12-01T16:02:33.595Z,4.00
2022-12-01T16:05:06.987Z,4.00
2022-12-01T16:08:11.639Z,4.00
2022-12-01T16:10:41.618Z,4.00
2022-12-01T16:13:44.683Z,4.00
2022-12-01T16:16:36.291Z,4.00
2022-12-01T16:19:09.756Z,3.90
2022-12-01T16:21:57.445Z,3.90
2022-12-01T16:24:54.629Z,3.90
2022-12-01T16:27:30.873Z,3.90
2022-12-01T16:30:10.548Z,3.80
2022-12-01T16:32:41.932Z,3.80
2022-12-01T16:35:35.213Z,3.70
2022-12-01T16:38:16.396Z,3.70
2022-12-01T16:40:53.514Z,3.60
2022-12-01T16:46:14.523Z,3.50
2022-12-01T16:48:43.919Z,3.50
2022-12-01T16:51:17.317Z,3.50
2022-12-01T16:53:57.284Z,3.50
2022-12-01T16:56:35.605Z,3.40
2022-12-01T16:59:05.883Z,3.30
2022-12-01T17:01:35.968Z,3.30
2022-12-01T17:04:08.827Z,3.30
2022-12-01T17:06:47.887Z,3.20
2022-12-01T17:09:18.250Z,3.30
2022-12-01T17:11:48.240Z,3.10
2022-12-01T17:14:33.808Z,3.00
2022-12-01T17:17:11.284Z,3.10
2022-12-01T17:19:43.696Z,3.10
2022-12-01T17:22:13.504Z,2.90
2022-12-01T17:24:43.579Z,2.70
2022-12-01T17:27:14.529Z,2.70
2022-12-01T17:29:47.048Z,2.70
2022-12-01T17:32:17.926Z,2.80
2022-12-01T17:34:51.983Z,2.80
2022-12-01T17:37:34.406Z,2.80
2022-12-01T17:40:06.073Z,2.80
2022-12-01T17:42:39.800Z,2.80
2022-12-01T17:45:11.404Z,2.80
2022-12-01T17:47:42.463Z,2.70
2022-12-01T17:50:16.806Z,2.70
2022-12-01T17:52:47.038Z,2.70
2022-12-01T17:55:15.210Z,2.70
2022-12-01T17:57:48.696Z,2.60
2022-12-01T18:00:20.394Z,2.50
2022-12-01T18:02:54.063Z,2.60
2022-12-01T18:05:33.169Z,2.40
2022-12-01T18:08:02.488Z,2.40
2022-12-01T18:10:34.414Z,2.40
2022-12-01T18:13:08.190Z,2.40
2022-12-01T18:15:41.685Z,2.30
2022-12-01T18:18:14.708Z,2.30
2022-12-01T18:20:45.465Z,2.20
2022-12-01T18:23:23.606Z,2.20
2022-12-01T18:25:54.233Z,2.10
2022-12-01T18:28:23.462Z,2.10
2022-12-01T18:30:53.820Z,2.20
2022-12-01T18:33:25.375Z,2.20
2022-12-01T18:35:57.724Z,2.10
2022-12-01T18:38:33.048Z,2.10
2022-12-01T18:41:05.927Z,2.10
2022-12-01T18:43:35.577Z,2.10
2022-12-01T18:46:17.998Z,2.10
2022-12-01T18:48:54.704Z,2.10
2022-12-01T18:51:39.912Z,2.00
2022-12-01T18:54:14.378Z,1.90
2022-12-01T18:56:45.897Z,1.80
2022-12-01T18:59:19.435Z,1.80
2022-12-01T19:01:50.997Z,1.90
2022-12-01T19:04:27.242Z,1.90
2022-12-01T19:06:59.759Z,2.00
2022-12-01T19:09:32.436Z,2.00
2022-12-01T19:12:04.356Z,2.00
2022-12-01T19:14:34.512Z,2.00
2022-12-01T19:17:11.861Z,1.90
2022-12-01T19:19:50.701Z,1.90
2022-12-01T19:22:25.294Z,1.90
2022-12-01T19:25:04.908Z,1.90
2022-12-01T19:27:39.192Z,1.90
2022-12-01T19:30:08.991Z,2.00
2022-12-01T19:32:42.860Z,2.00
2022-12-01T19:35:15.685Z,2.10
2022-12-01T19:37:53.989Z,2.10
2022-12-01T19:43:08.459Z,2.20
2022-12-01T19:45:48.374Z,2.10
2022-12-01T19:48:21.832Z,2.10
2022-12-01T19:50:58.581Z,2.10
2022-12-01T19:53:44.216Z,2.10
2022-12-01T19:56:17.091Z,2.00
2022-12-01T19:58:50.557Z,2.00
2022-12-01T20:01:25.995Z,2.10
2022-12-01T20:04:00.027Z,2.10
2022-12-01T20:06:37.840Z,2.20
2022-12-01T20:09:11.015Z,2.00
2022-12-01T20:11:47.592Z,2.10
2022-12-01T20:14:17.193Z,2.10
2022-12-01T20:16:59.847Z,2.00
2022-12-01T20:19:30.005Z,2.10
2022-12-01T20:22:09.302Z,2.10
2022-12-01T20:24:57.381Z,2.00
2022-12-01T20:27:27.792Z,2.00
2022-12-01T20:30:06.633Z,2.10
2022-12-01T20:32:46.309Z,2.10
2022-12-01T20:38:10.644Z,2.20
2022-12-01T20:40:44.220Z,2.10
2022-12-01T20:43:17.435Z,2.10
2022-12-01T20:45:47.681Z,2.10
2022-12-01T20:48:22.844Z,2.10
2022-12-01T20:50:58.135Z,2.10
2022-12-01T20:53:27.786Z,2.20
2022-12-01T20:56:03.514Z,2.10
2022-12-01T20:58:37.275Z,2.10
2022-12-01T21:01:17.064Z,2.10
2022-12-01T21:03:51.613Z,2.00
2022-12-01T21:07:18.045Z,2.00
2022-12-01T21:09:59.606Z,2.00
2022-12-01T21:13:05.793Z,2.00
2022-12-01T21:16:13.729Z,2.00
2022-12-01T21:18:55.938Z,2.00
2022-12-01T21:21:31.523Z,2.00
2022-12-01T21:24:17.075Z,2.00
2022-12-01T21:27:01.679Z,2.00
2022-12-01T21:30:02.282Z,2.00
2022-12-01T21:32:46.805Z,2.00
2022-12-01T21:35:28.177Z,2.10
2022-12-01T21:38:05.453Z,2.00
2022-12-01T21:40:36.607Z,2.00
2022-12-01T21:43:26.722Z,1.90
2022-12-01T21:46:07.342Z,2.00
2022-12-01T21:48:40.423Z,2.00
2022-12-01T21:51:40.464Z,1.90
2022-12-01T21:54:22.845Z,2.00
2022-12-01T21:56:56.547Z,1.90
2022-12-01T21:59:30.656Z,1.90
2022-12-01T22:02:44.229Z,1.90
2022-12-01T22:05:40.843Z,1.90
2022-12-01T22:08:27.025Z,1.80
2022-12-01T22:11:05.368Z,1.90
2022-12-01T22:14:16.501Z,1.90
2022-12-01T22:16:57.053Z,2.00
2022-12-01T22:19:37.920Z,1.80
2022-12-01T22:22:09.351Z,1.80
2022-12-01T22:24:53.538Z,1.80
2022-12-01T22:27:29.337Z,1.80
2022-12-01T22:29:59.460Z,1.80
2022-12-01T22:32:40.827Z,1.90
2022-12-01T22:35:47.076Z,1.80
2022-12-01T22:38:28.322Z,1.80
2022-12-01T22:41:10.198Z,1.80
2022-12-01T22:44:02.664Z,1.80
2022-12-01T22:46:35.309Z,1.70
2022-12-01T22:49:26.697Z,1.70
2022-12-01T22:52:08.787Z,1.60
2022-12-01T22:54:45.471Z,1.60
2022-12-01T22:57:19.651Z,1.60
2022-12-01T22:59:50.759Z,1.60
2022-12-01T23:02:36.922Z,1.50
2022-12-01T23:05:27.329Z,1.60
2022-12-01T23:07:58.376Z,1.70
2022-12-01T23:10:34.129Z,1.60
2022-12-01T23:13:17.318Z,1.50
2022-12-01T23:15:53.740Z,1.60
2022-12-01T23:18:28.834Z,1.50
2022-12-01T23:21:03.227Z,1.50
2022-12-01T23:23:37.022Z,1.50
2022-12-01T23:28:52.029Z,1.50
2022-12-01T23:31:21.004Z,1.50
2022-12-01T23:33:50.053Z,1.50
2022-12-01T23:36:29.615Z,1.40
2022-12-01T23:39:02.380Z,1.40
2022-12-01T23:41:53.208Z,1.30
2022-12-01T23:44:44.125Z,1.30
2022-12-01T23:47:20.234Z,1.30
2022-12-01T23:50:00.088Z,1.30
2022-12-01T23:52:36.370Z,1.30
2022-12-01T23:55:28.521Z,1.30
2022-12-01T23:58:04.733Z,1.10
